In Rescue
 
Open Full Screen Window  High Contrast Mode
Wind Gusting 00 knots
03
January 22, 2020 4:31 PM CST
Present Weather: Haze
Weather Information
Wind Direction
  200 °
Wind Speed
  03 kt (3 mph)
Wind Gust
  00 kt (0 mph)
Altimeter
29.83 in
Visibility
5 SM
Temperature
-01° C
30° F
Dewpoint
-04° C
25° F
Humidity
80%
1hr Rain Fall
00.00 in.
24hr Rain Fall
00.00 in.
Sky Condition
Overcast @ 1,100 ft
MVFR

METAR KTWM 222231Z AUTO 20003KT 5SM HZ OVC011 M01/M04 A2983 RMK AO2

FAA Disclaimer: The data displayed is for advisory purposes only and is not to be used for flight planning or operations.